Lewiston, ID

3:22 PM PDT on May 22, 2015 (GMT -0700)
Lowell | | Change Station
CLOSE
Current Station
Airport
Location: Lowell,
Elevation: 1480 ft
Nearby Weather Stations

Elev 1480 ft 46.14 °N, 115.60 °W | Updated 30 minutes ago

Partly Cloudy
Partly Cloudy
73 °F
Feels Like 73 °F
N
0
Wind Variable Wind from North
Gusts mph

Today
High -- | Low -- °F
--% Chance of Precip.
Yesterday
High -- | Low -- °F
Precip. -- in
5:07 AM 8:22 PM
Waxing Crescent, 24% visible
Pressure 29.69 in
Visibility -9999.0 miles
Clouds
Dew Point 48 °F
Humidity 41%
Rainfall 0.00 in
Snow Depth Not available.
UV Not available.
Pollen 7.40 out of 12
Air Quality Not available.
Flu Activity No Activity
METAR KP69 222152Z AUTO 00000KT 23/09 A2973 RMK AO1 SLP054 T02280089

More Conditions Fewer Conditions

Pressure 29.69 in
Visibility -9999.0 miles
Clouds
Dew Point 48 °F
Humidity 41%
Rainfall 0.00 in
Snow Depth Not available.
UV Not available.
Pollen 7.40 out of 12
Air Quality Not available.
Flu Activity No Activity
METAR KP69 222152Z AUTO 00000KT 23/09 A2973 RMK AO1 SLP054 T02280089

More Conditions Fewer Conditions

Nowcast | as of 3:19 PM PDT on May 22, 2015

A broken line of thunderstorms stretching from just south of Moscow to Potlatch...Tensed and Latah will move slowly southwest off the higher terrain and onto the Palouse through 430 PM. This includes Pullman...Colfax...Uniontown...Steptoe and Plaza. The strongest storms will produce dangerous lightning...brief heavy downpours...hail slightly larger than pea size and wind gusts to 35 mph.

×

10-Day Weather Forecast

Almanac

Astronomy

May. 22, 2015 Rise Set
Actual Time
Civil Twilight
Nautical Twilight
Astronomical Twilight
Moon
Length of Visible Light
Length of Day
Tomorrow will be .
, % of the Moon is Illuminated

Today's Extremes

State Highs State Lows

Community

WunderPhotos

Upload Photos

1,823,324 photos uploaded!

WunderBlogs® & News

Nearby

Air Quality

  Air Quality AQ Index Pollutant
Not available.

Snow Depth

Station Depth Elevation

Earthquake Activity

City Distance Mag. Time & Date
Minimum magnitude displayed is 2.5.

Coastal Water Temperatures

Place Temperature

Stations

Nearby Weather Stations

Station Location Temp. Windchill Dew Point Humidity Wind Precip. Elev Updated Type